Time;durP1;ratioP1;P1;durP2;ratioP2;P2;SDS_P1;SDS_P2;PMS_P1;PMS_P2;Temp;Humidity;BMP_temperature;BMP_pressure;BME280_temperature;BME280_humidity;BME280_pressure;Samples;Min_cycle;Max_cycle;Signal;HPM_P1;HPM_P2
2021/04/28 00:01:47;;;;;;;;;;;;;;;19.20;68.53;100763.25;5050114;28;1402;-59
2021/04/28 00:04:13;;;;;;;;;;;;;;;19.18;68.34;100760.75;5049685;28;1641;-59
2021/04/28 00:06:40;;;;;;;;;;;;;;;19.16;68.44;100765.38;5039503;28;1382;-58
2021/04/28 00:09:06;;;;;;;;;;;;;;;19.15;68.25;100776.25;5046880;28;1906;-59
2021/04/28 00:11:32;;;;;;;;;;;;;;;19.16;68.16;100770.75;5036146;28;1994;-59
2021/04/28 00:13:59;;;;;;;;;;;;;;;19.13;68.30;100771.00;5043657;28;1574;-59
2021/04/28 00:16:25;;;;;;;;;;;;;;;19.10;67.91;100773.97;5042250;28;1327;-56
2021/04/28 00:18:51;;;;;;;;;;;;;;;19.11;68.07;100777.50;5039697;28;1323;-55
2021/04/28 00:21:18;;;;;;;;;;;;;;;19.08;68.10;100781.31;5050172;28;1550;-55
2021/04/28 00:23:45;;;;;;;;;;;;;;;19.08;68.00;100776.78;5050534;28;1526;-55
2021/04/28 00:26:13;;;;;;;;;;;;;;;19.08;68.06;100786.66;5043695;28;1590;-59
2021/04/28 00:28:39;;;;;;;;;;;;;;;19.06;67.88;100772.56;5040906;28;1980;-59
2021/04/28 00:31:05;;;;;;;;;;;;;;;19.05;67.95;100771.69;5046755;28;1430;-59
2021/04/28 00:33:31;;;;;;;;;;;;;;;19.06;67.74;100784.13;5048803;28;1596;-56
2021/04/28 00:35:58;;;;;;;;;;;;;;;19.03;67.48;100787.06;5035297;28;1710;-59
2021/04/28 00:38:24;;;;;;;;;;;;;;;19.02;67.14;100785.38;5046324;28;1629;-55
2021/04/28 00:40:51;;;;;;;;;;;;;;;19.03;67.45;100794.25;5048350;28;1331;-56
2021/04/28 00:43:18;;;;;;;;;;;;;;;19.02;66.79;100782.69;5044318;28;1761;-55
2021/04/28 00:45:45;;;;;;;;;;;;;;;19.00;67.17;100775.75;5045589;28;1702;-55
2021/04/28 00:48:11;;;;;;;;;;;;;;;19.02;67.17;100779.16;5048757;28;1906;-59
2021/04/28 00:50:38;;;;;;;;;;;;;;;18.99;67.21;100782.94;5056239;28;1380;-55
2021/04/28 00:53:05;;;;;;;;;;;;;;;19.01;67.52;100790.88;5042695;28;1398;-55
2021/04/28 00:55:32;;;;;;;;;;;;;;;18.99;67.00;100804.38;5048292;28;1662;-56
2021/04/28 00:57:59;;;;;;;;;;;;;;;18.99;67.00;100793.66;5047271;28;1534;-59
2021/04/28 01:00:26;;;;;;;;;;;;;;;18.98;67.13;100805.38;5041152;28;1324;-59
2021/04/28 01:02:52;;;;;;;;;;;;;;;18.96;66.95;100790.41;5046338;28;1436;-55
2021/04/28 01:05:19;;;;;;;;;;;;;;;18.97;67.01;100803.69;5043264;28;1769;-58
2021/04/28 01:07:46;;;;;;;;;;;;;;;18.97;66.75;100794.78;5053070;28;1902;-55
2021/04/28 01:10:15;;;;;;;;;;;;;;;18.97;66.81;100798.31;5045464;28;1630;-59
2021/04/28 01:12:41;;;;;;;;;;;;;;;18.93;66.72;100783.50;5044441;28;1374;-55
2021/04/28 01:15:10;;;;;;;;;;;;;;;18.94;66.88;100773.63;5046613;28;1380;-59
2021/04/28 01:17:36;;;;;;;;;;;;;;;18.93;66.62;100782.66;5042793;28;1522;-59
2021/04/28 01:20:03;;;;;;;;;;;;;;;18.91;66.73;100785.47;5049631;28;1418;-59
2021/04/28 01:22:34;;;;;;;;;;;;;;;18.91;66.62;100784.63;5045416;28;1749;-59
2021/04/28 01:25:00;;;;;;;;;;;;;;;18.90;66.60;100788.25;5049856;28;1319;-59
2021/04/28 01:27:27;;;;;;;;;;;;;;;18.93;66.67;100790.69;5041951;28;1518;-55
2021/04/28 01:29:53;;;;;;;;;;;;;;;18.88;66.65;100791.09;5042878;28;1562;-59
2021/04/28 01:32:21;;;;;;;;;;;;;;;18.88;66.56;100791.94;5053256;28;1533;-59
2021/04/28 01:34:49;;;;;;;;;;;;;;;18.87;66.58;100784.88;5055072;28;1569;-55
2021/04/28 01:37:16;;;;;;;;;;;;;;;18.87;66.57;100800.94;5049675;28;1780;-59
2021/04/28 01:39:43;;;;;;;;;;;;;;;18.86;66.34;100815.34;5049311;28;1411;-55
2021/04/28 01:42:10;;;;;;;;;;;;;;;18.85;66.41;100824.34;5048134;28;1387;-59
2021/04/28 01:44:37;;;;;;;;;;;;;;;18.85;66.49;100810.94;5052655;28;1578;-59
2021/04/28 01:47:03;;;;;;;;;;;;;;;18.85;66.44;100808.28;5048230;28;1339;-59
2021/04/28 01:49:30;;;;;;;;;;;;;;;18.84;66.44;100795.00;5046112;28;1969;-59
2021/04/28 01:51:57;;;;;;;;;;;;;;;18.82;66.49;100780.91;5050483;28;1592;-55
2021/04/28 01:54:23;;;;;;;;;;;;;;;18.83;66.49;100777.25;5051932;28;1657;-55
2021/04/28 01:56:52;;;;;;;;;;;;;;;18.80;66.33;100767.66;5046792;28;1466;-55
2021/04/28 01:59:18;;;;;;;;;;;;;;;18.82;66.31;100763.00;5046149;28;1064;-59
2021/04/28 02:01:45;;;;;;;;;;;;;;;18.79;66.27;100754.34;5032601;23;2523;-43
2021/04/28 02:04:12;;;;;;;;;;;;;;;18.78;66.24;100750.84;5011625;28;1613;-44
2021/04/28 02:06:38;;;;;;;;;;;;;;;18.78;66.27;100758.88;5012815;28;1753;-43
2021/04/28 02:09:04;;;;;;;;;;;;;;;18.78;66.31;100755.31;5012754;28;2043;-43
2021/04/28 02:11:31;;;;;;;;;;;;;;;18.79;66.20;100760.59;5013879;23;3546;-59
2021/04/28 02:13:58;;;;;;;;;;;;;;;18.79;66.19;100749.00;4983646;28;1337;-60
2021/04/28 02:16:25;;;;;;;;;;;;;;;18.76;66.29;100751.94;4984063;28;1333;-56
2021/04/28 02:18:51;;;;;;;;;;;;;;;18.78;66.01;100758.00;4985152;28;1608;-56
2021/04/28 02:21:17;;;;;;;;;;;;;;;18.76;66.00;100758.16;4991786;28;1468;-59
2021/04/28 02:23:44;;;;;;;;;;;;;;;18.74;65.95;100762.81;4987170;28;1314;-56
2021/04/28 02:26:10;;;;;;;;;;;;;;;18.78;65.75;100774.94;4992517;28;1382;-56
2021/04/28 02:28:36;;;;;;;;;;;;;;;18.73;65.96;100768.28;4983700;28;1911;-56
2021/04/28 02:31:03;;;;;;;;;;;;;;;18.74;65.90;100762.81;4983142;28;1380;-56
2021/04/28 02:33:29;;;;;;;;;;;;;;;18.81;65.43;100777.38;4988993;28;1483;-56
2021/04/28 02:35:56;;;;;;;;;;;;;;;19.27;64.59;100780.50;4993441;28;1515;-56
2021/04/28 02:38:25;;;;;;;;;;;;;;;20.02;62.26;100791.66;4983592;28;1522;-60
2021/04/28 02:40:51;;;;;;;;;;;;;;;20.43;60.75;100795.88;4986961;28;988;-60
2021/04/28 02:43:18;;;;;;;;;;;;;;;20.56;61.45;100794.69;4981789;28;1531;-59
2021/04/28 02:45:47;;;;;;;;;;;;;;;20.73;60.14;100796.66;4982862;28;1696;-56
2021/04/28 02:48:14;;;;;;;;;;;;;;;20.73;60.95;100787.75;4980195;28;1968;-56
2021/04/28 02:50:40;;;;;;;;;;;;;;;20.63;60.21;100769.81;4991129;28;1463;-56
2021/04/28 02:53:07;;;;;;;;;;;;;;;20.51;61.30;100792.44;4983193;28;1068;-60
2021/04/28 02:55:34;;;;;;;;;;;;;;;20.48;61.69;100795.41;4982446;28;1883;-56
2021/04/28 02:58:00;;;;;;;;;;;;;;;20.34;61.14;100806.63;4985554;28;1609;-56
2021/04/28 03:00:26;;;;;;;;;;;;;;;20.43;61.45;100797.69;4991503;28;1409;-60
2021/04/28 03:02:53;;;;;;;;;;;;;;;20.49;61.23;100813.22;4993704;28;1562;-60
2021/04/28 03:05:21;;;;;;;;;;;;;;;20.50;60.79;100825.66;4991828;28;1460;-59
2021/04/28 03:07:47;;;;;;;;;;;;;;;20.49;60.81;100805.16;4982555;28;1977;-60
2021/04/28 03:10:13;;;;;;;;;;;;;;;20.51;61.39;100818.44;4988991;28;1436;-56
2021/04/28 03:12:40;;;;;;;;;;;;;;;20.44;61.31;100797.53;4986983;28;1448;-56
2021/04/28 03:15:06;;;;;;;;;;;;;;;20.43;61.65;100811.09;4992161;28;1466;-59
2021/04/28 03:17:32;;;;;;;;;;;;;;;20.44;61.53;100794.00;4985997;28;1526;-60
2021/04/28 03:20:00;;;;;;;;;;;;;;;20.50;61.52;100793.44;4993681;28;1011;-56
2021/04/28 03:22:27;;;;;;;;;;;;;;;20.51;60.97;100784.38;4991199;28;1583;-56
2021/04/28 03:24:53;;;;;;;;;;;;;;;20.54;61.32;100775.19;4987623;28;1577;-59
2021/04/28 03:27:20;;;;;;;;;;;;;;;20.54;61.30;100776.03;4991523;28;1376;-60
2021/04/28 03:29:46;;;;;;;;;;;;;;;20.51;61.23;100775.47;4991522;28;1906;-60
2021/04/28 03:32:12;;;;;;;;;;;;;;;20.48;61.39;100771.25;4988621;28;1454;-56
2021/04/28 03:34:39;;;;;;;;;;;;;;;20.57;61.31;100773.06;4984269;28;1353;-60
2021/04/28 03:37:05;;;;;;;;;;;;;;;20.62;60.23;100778.03;4975101;28;1504;-56
2021/04/28 03:39:32;;;;;;;;;;;;;;;20.64;60.17;100793.00;4981312;28;1887;-56
2021/04/28 03:41:58;;;;;;;;;;;;;;;20.68;60.42;100787.34;4991444;28;1325;-56
2021/04/28 03:44:24;;;;;;;;;;;;;;;20.63;60.30;100780.56;4991794;28;1458;-56
2021/04/28 03:46:50;;;;;;;;;;;;;;;20.64;61.09;100776.88;4990846;28;1530;-60
2021/04/28 03:49:17;;;;;;;;;;;;;;;20.65;60.32;100785.78;4984774;28;1991;-60
2021/04/28 03:51:43;;;;;;;;;;;;;;;20.71;60.08;100768.22;4991721;28;1759;-60
2021/04/28 03:54:09;;;;;;;;;;;;;;;20.65;60.07;100749.03;4974958;28;1569;-60
2021/04/28 03:56:36;;;;;;;;;;;;;;;20.37;60.64;100758.84;4989378;28;1409;-56
2021/04/28 03:59:03;;;;;;;;;;;;;;;20.04;61.62;100790.53;4985936;28;1349;-60
2021/04/28 04:01:29;;;;;;;;;;;;;;;19.82;62.89;100786.28;4988295;28;1736;-60
2021/04/28 04:03:55;;;;;;;;;;;;;;;19.68;63.23;100783.97;4986874;28;1490;-56
2021/04/28 04:06:21;;;;;;;;;;;;;;;19.57;63.10;100781.41;4991420;28;1432;-56
2021/04/28 04:08:47;;;;;;;;;;;;;;;19.52;63.32;100797.06;4985434;28;1980;-60
2021/04/28 04:11:13;;;;;;;;;;;;;;;19.40;63.80;100797.19;4991852;28;1593;-56
2021/04/28 04:13:40;;;;;;;;;;;;;;;19.30;63.76;100785.59;4983344;28;1349;-60
2021/04/28 04:16:06;;;;;;;;;;;;;;;19.29;63.80;100799.97;4980248;28;1707;-60
2021/04/28 04:18:32;;;;;;;;;;;;;;;19.30;63.85;100811.53;4994643;28;1452;-56
2021/04/28 04:20:58;;;;;;;;;;;;;;;19.28;63.43;100815.22;4962455;28;1731;-56
2021/04/28 04:23:25;;;;;;;;;;;;;;;19.30;63.24;100815.09;4990818;28;1587;-60
2021/04/28 04:25:51;;;;;;;;;;;;;;;19.29;63.50;100834.84;4988121;28;1521;-60
2021/04/28 04:28:17;;;;;;;;;;;;;;;19.30;63.33;100841.03;4995139;28;1906;-59
2021/04/28 04:30:44;;;;;;;;;;;;;;;19.28;63.99;100841.19;4988526;28;1306;-56
2021/04/28 04:33:14;;;;;;;;;;;;;;;19.26;63.84;100841.31;4984894;28;1565;-55
2021/04/28 04:35:40;;;;;;;;;;;;;;;19.23;63.61;100832.69;4985609;28;1532;-56
2021/04/28 04:38:06;;;;;;;;;;;;;;;19.24;63.72;100829.06;4995656;28;1594;-55
2021/04/28 04:40:32;;;;;;;;;;;;;;;19.22;64.11;100831.88;4994545;28;1696;-56
2021/04/28 04:42:59;;;;;;;;;;;;;;;19.20;63.91;100823.09;4976405;28;1681;-59
2021/04/28 04:45:25;;;;;;;;;;;;;;;19.18;63.89;100824.19;4989453;28;1516;-55
2021/04/28 04:47:52;;;;;;;;;;;;;;;19.17;64.07;100850.16;4988864;28;1907;-57
2021/04/28 04:50:18;;;;;;;;;;;;;;;19.16;64.55;100847.63;4996568;28;1058;-56
2021/04/28 04:52:44;;;;;;;;;;;;;;;19.15;64.32;100835.22;4994267;28;1648;-59
2021/04/28 04:55:10;;;;;;;;;;;;;;;19.14;64.21;100850.47;4994361;28;1887;-59
2021/04/28 04:57:37;;;;;;;;;;;;;;;19.12;63.86;100855.09;4991467;28;1687;-59
2021/04/28 05:00:03;;;;;;;;;;;;;;;19.16;64.40;100869.06;4988187;28;1442;-56
2021/04/28 05:02:30;;;;;;;;;;;;;;;19.15;63.99;100872.75;4990981;28;1520;-56
2021/04/28 05:04:56;;;;;;;;;;;;;;;19.12;64.29;100878.34;4989306;28;1520;-59
2021/04/28 05:07:23;;;;;;;;;;;;;;;19.12;64.61;100867.63;4982355;28;1766;-59
2021/04/28 05:09:49;;;;;;;;;;;;;;;19.15;64.32;100862.03;4994143;28;1976;-59
2021/04/28 05:12:15;;;;;;;;;;;;;;;19.13;64.15;100875.56;4990724;28;1607;-59
2021/04/28 05:14:41;;;;;;;;;;;;;;;19.01;64.78;100858.69;4995742;28;1122;-59
2021/04/28 05:17:07;;;;;;;;;;;;;;;18.96;66.13;100863.63;4982020;28;1826;-59
2021/04/28 05:19:33;;;;;;;;;;;;;;;18.95;64.89;100861.91;4990064;28;1763;-56
2021/04/28 05:22:00;;;;;;;;;;;;;;;18.94;67.78;100873.63;4992465;28;1679;-59
2021/04/28 05:24:26;;;;;;;;;;;;;;;18.89;62.19;100862.44;4985622;28;1674;-56
2021/04/28 05:26:52;;;;;;;;;;;;;;;18.84;61.78;100868.22;4982682;28;1806;-55
2021/04/28 05:29:18;;;;;;;;;;;;;;;18.78;62.64;100854.44;4981798;28;1969;-59
2021/04/28 05:31:44;;;;;;;;;;;;;;;18.84;65.79;100859.31;4985791;28;1711;-59
2021/04/28 05:34:10;;;;;;;;;;;;;;;18.81;62.66;100856.91;4995487;28;1115;-56
2021/04/28 05:36:36;;;;;;;;;;;;;;;18.74;62.02;100863.72;4981796;28;1691;-58
2021/04/28 05:39:04;;;;;;;;;;;;;;;18.72;60.98;100849.63;4986576;28;1552;-56
2021/04/28 05:41:30;;;;;;;;;;;;;;;18.76;59.88;100877.84;4987233;28;1564;-60
2021/04/28 05:43:56;;;;;;;;;;;;;;;18.73;62.01;100859.38;4990553;28;1276;-59
2021/04/28 05:46:22;;;;;;;;;;;;;;;18.68;62.58;100855.25;4987818;28;1512;-59
2021/04/28 05:48:48;;;;;;;;;;;;;;;18.80;62.32;100865.91;4993393;28;1983;-59
2021/04/28 05:51:14;;;;;;;;;;;;;;;18.82;62.74;100870.19;4975986;28;1580;-56
2021/04/28 05:53:40;;;;;;;;;;;;;;;18.81;63.24;100864.94;4992913;28;1573;-59
2021/04/28 05:56:07;;;;;;;;;;;;;;;18.83;63.10;100879.06;4988165;28;1422;-56
2021/04/28 05:58:34;;;;;;;;;;;;;;;18.85;62.97;100883.28;4989587;28;1520;-59
2021/04/28 06:01:01;;;;;;;;;;;;;;;18.87;62.92;100872.44;4978873;28;1448;-59
2021/04/28 06:03:27;;;;;;;;;;;;;;;18.88;62.79;100874.16;4985115;28;1375;-56
2021/04/28 06:05:53;;;;;;;;;;;;;;;18.87;63.14;100878.66;4991271;28;1408;-56
2021/04/28 06:08:19;;;;;;;;;;;;;;;18.86;63.25;100889.50;4988927;28;2001;-56
2021/04/28 06:10:45;;;;;;;;;;;;;;;18.86;63.25;100889.50;4982874;28;1528;-57
2021/04/28 06:13:12;;;;;;;;;;;;;;;18.84;63.52;100881.63;4978980;28;1747;-60
2021/04/28 06:15:39;;;;;;;;;;;;;;;18.83;63.54;100892.44;4988704;28;1458;-60
2021/04/28 06:18:06;;;;;;;;;;;;;;;18.84;63.98;100880.75;4984664;28;1479;-65
2021/04/28 06:20:32;;;;;;;;;;;;;;;18.83;64.08;100887.09;4991204;28;1046;-67
2021/04/28 06:22:58;;;;;;;;;;;;;;;18.84;64.26;100889.66;4983146;28;1539;-57
2021/04/28 06:25:24;;;;;;;;;;;;;;;18.84;64.19;100878.06;4990716;28;1214;-57
2021/04/28 06:27:50;;;;;;;;;;;;;;;18.85;64.12;100888.66;4977342;28;1367;-59
2021/04/28 06:30:18;;;;;;;;;;;;;;;18.84;64.46;100891.47;4978262;28;1973;-57
2021/04/28 06:32:45;;;;;;;;;;;;;;;18.84;64.66;100896.81;4975399;28;1535;-60
2021/04/28 06:35:13;;;;;;;;;;;;;;;18.80;64.18;100880.19;4992297;28;1240;-59
2021/04/28 06:37:39;;;;;;;;;;;;;;;18.83;64.44;100885.25;4986540;28;1711;-59
2021/04/28 06:40:06;;;;;;;;;;;;;;;18.82;64.48;100893.41;4991975;28;1592;-59
2021/04/28 06:42:32;;;;;;;;;;;;;;;18.83;64.41;100903.16;4991837;28;1337;-60
2021/04/28 06:44:58;;;;;;;;;;;;;;;18.80;64.47;100895.38;4987185;28;1407;-60
2021/04/28 06:47:25;;;;;;;;;;;;;;;18.80;64.76;100904.28;4988430;28;1374;-60
2021/04/28 06:49:53;;;;;;;;;;;;;;;18.80;64.94;100901.63;4991934;28;1906;-60
2021/04/28 06:52:19;;;;;;;;;;;;;;;18.84;64.49;100912.91;4992445;28;1728;-59
2021/04/28 06:54:46;;;;;;;;;;;;;;;18.87;64.46;100912.66;4992936;28;1155;-60
2021/04/28 06:57:12;;;;;;;;;;;;;;;18.87;64.27;100907.28;4991369;28;1167;-70
2021/04/28 06:59:38;;;;;;;;;;;;;;;18.87;64.62;100901.94;4994575;28;1181;-60
2021/04/28 07:02:04;;;;;;;;;;;;;;;18.88;64.65;100903.63;4988704;28;1547;-60
2021/04/28 07:04:31;;;;;;;;;;;;;;;18.88;64.33;100909.00;4993021;28;1632;-69
2021/04/28 07:06:57;;;;;;;;;;;;;;;18.88;64.21;100904.47;4992823;28;1418;-61
2021/04/28 07:09:24;;;;;;;;;;;;;;;18.87;64.22;100896.56;4992514;28;1902;-61
2021/04/28 07:11:50;;;;;;;;;;;;;;;18.90;64.92;100912.41;4990543;28;1381;-64
2021/04/28 07:14:17;;;;;;;;;;;;;;;18.93;64.54;100912.13;4992713;28;1325;-57
2021/04/28 07:16:43;;;;;;;;;;;;;;;18.97;64.59;100905.50;4984557;28;1382;-58
2021/04/28 07:19:09;;;;;;;;;;;;;;;18.97;64.86;100923.44;4978808;28;1524;-58
2021/04/28 07:21:37;;;;;;;;;;;;;;;18.96;64.84;100921.72;4968849;28;1336;-56
2021/04/28 07:24:04;;;;;;;;;;;;;;;18.94;64.96;100913.84;4987028;28;1365;-56
2021/04/28 07:26:30;;;;;;;;;;;;;;;18.93;65.02;100917.47;4988998;28;1470;-59
2021/04/28 07:28:56;;;;;;;;;;;;;;;18.91;65.03;100924.78;4965941;28;1906;-55
2021/04/28 07:31:23;;;;;;;;;;;;;;;18.91;65.85;100922.13;4968183;28;1449;-57
2021/04/28 07:33:49;;;;;;;;;;;;;;;18.96;65.05;100930.63;4982071;28;1583;-57
2021/04/28 07:36:15;;;;;;;;;;;;;;;19.04;65.08;100919.25;4977647;28;1500;-57
2021/04/28 07:38:42;;;;;;;;;;;;;;;18.97;64.64;100929.63;4977123;28;1515;-58
2021/04/28 07:41:08;;;;;;;;;;;;;;;18.95;64.87;100926.22;4977676;28;1412;-58
2021/04/28 07:43:35;;;;;;;;;;;;;;;18.95;64.89;100928.91;4988064;28;1468;-58
2021/04/28 07:46:01;;;;;;;;;;;;;;;18.92;64.82;100926.50;4989139;28;1764;-58
2021/04/28 07:48:27;;;;;;;;;;;;;;;18.97;64.34;100918.91;4993967;28;1906;-58
2021/04/28 07:50:53;;;;;;;;;;;;;;;18.99;64.74;100916.94;4962980;28;1532;-59
2021/04/28 07:53:20;;;;;;;;;;;;;;;19.10;64.23;100910.69;4987846;28;1407;-58
2021/04/28 07:55:47;;;;;;;;;;;;;;;19.16;63.97;100907.47;4995888;28;1291;-58
2021/04/28 07:58:14;;;;;;;;;;;;;;;19.24;63.96;100910.31;4990432;28;1704;-58
2021/04/28 08:00:40;;;;;;;;;;;;;;;19.31;63.24;100907.94;4988840;28;1519;-60
2021/04/28 08:03:06;;;;;;;;;;;;;;;19.35;63.46;100908.53;4998653;28;1185;-58
2021/04/28 08:05:32;;;;;;;;;;;;;;;19.34;63.79;100907.69;4994704;28;1578;-58
2021/04/28 08:07:58;;;;;;;;;;;;;;;19.40;63.25;100909.00;4987558;28;1719;-57
2021/04/28 08:10:24;;;;;;;;;;;;;;;19.43;63.36;100904.19;4996545;28;1898;-57
2021/04/28 08:12:51;;;;;;;;;;;;;;;19.46;63.69;100920.03;4996524;28;1372;-56
2021/04/28 08:15:18;;;;;;;;;;;;;;;19.42;63.67;100907.88;4996205;28;1584;-59
2021/04/28 08:17:44;;;;;;;;;;;;;;;19.42;63.74;100907.88;4992246;28;1303;-58
2021/04/28 08:20:11;;;;;;;;;;;;;;;19.43;63.73;100908.72;4989557;28;1568;-61
2021/04/28 08:22:37;;;;;;;;;;;;;;;19.47;63.76;100910.13;4988629;28;1301;-58
2021/04/28 08:25:04;;;;;;;;;;;;;;;19.42;63.62;100889.09;4984192;28;1228;-58
2021/04/28 08:27:30;;;;;;;;;;;;;;;19.43;63.83;100890.78;4986809;28;1414;-63
2021/04/28 08:29:57;;;;;;;;;;;;;;;19.46;64.07;100878.94;4992818;28;1983;-61
2021/04/28 08:32:23;;;;;;;;;;;;;;;19.39;64.06;100886.66;4996594;28;1636;-62
2021/04/28 08:34:49;;;;;;;;;;;;;;;19.36;64.41;100875.34;4981587;28;1060;-60
2021/04/28 08:37:15;;;;;;;;;;;;;;;19.37;64.05;100875.22;4991948;28;1735;-61
2021/04/28 08:39:41;;;;;;;;;;;;;;;19.41;63.96;100895.44;4988429;28;1574;-60
2021/04/28 08:42:07;;;;;;;;;;;;;;;19.43;63.95;100881.88;4993285;28;1426;-61
2021/04/28 08:44:35;;;;;;;;;;;;;;;19.45;63.78;100875.41;4993406;28;1258;-61
2021/04/28 08:47:02;;;;;;;;;;;;;;;19.44;64.03;100876.41;4985585;28;1391;-61
2021/04/28 08:49:28;;;;;;;;;;;;;;;19.41;64.01;100873.97;4998384;28;1973;-61
2021/04/28 08:51:55;;;;;;;;;;;;;;;19.41;63.70;100884.69;4992605;28;1558;-61
2021/04/28 08:54:22;;;;;;;;;;;;;;;19.41;63.64;100865.94;4995933;28;1428;-62
2021/04/28 08:56:50;;;;;;;;;;;;;;;19.43;63.91;100872.00;4993160;28;1528;-61
2021/04/28 08:59:16;;;;;;;;;;;;;;;19.43;63.30;100871.16;4984706;28;1595;-61
2021/04/28 09:01:45;;;;;;;;;;;;;;;19.46;63.22;100881.63;4984317;28;1597;-62
2021/04/28 09:04:13;;;;;;;;;;;;;;;19.46;63.45;100871.75;4995640;28;1454;-62
2021/04/28 09:06:39;;;;;;;;;;;;;;;19.47;63.52;100877.94;4977901;28;1581;-62
2021/04/28 09:09:06;;;;;;;;;;;;;;;19.45;63.67;100875.41;4987874;28;1979;-62
2021/04/28 09:11:33;;;;;;;;;;;;;;;19.50;63.79;100874.13;4983457;28;1527;-62
2021/04/28 09:14:11;;;;;;;;;;;;;;;19.44;63.72;100867.50;4987215;28;1564;-62
2021/04/28 09:16:37;;;;;;;;;;;;;;;19.43;63.47;100869.31;4980936;28;1589;-62
2021/04/28 09:19:03;;;;;;;;;;;;;;;19.39;63.91;100859.84;4990784;28;1737;-62
2021/04/28 09:21:48;;;;;;;;;;;;;;;19.39;64.03;100862.53;4996141;28;1771;-60
2021/04/28 09:24:22;;;;;;;;;;;;;;;19.37;63.64;100848.41;4979236;28;1497;-62
2021/04/28 09:26:49;;;;;;;;;;;;;;;19.37;63.94;100853.78;4976110;28;1504;-61
2021/04/28 09:29:18;;;;;;;;;;;;;;;19.38;63.69;100850.13;4990773;28;2314;-62
2021/04/28 09:31:55;;;;;;;;;;;;;;;19.37;63.55;100844.88;4984963;28;1567;-61
2021/04/28 09:34:28;;;;;;;;;;;;;;;19.37;64.19;100847.56;4982259;28;1585;-62
2021/04/28 09:37:01;;;;;;;;;;;;;;;19.36;63.66;100837.81;4985374;28;1535;-62
2021/04/28 09:39:28;;;;;;;;;;;;;;;19.35;63.58;100847.69;4995293;28;1432;-62
2021/04/28 09:41:56;;;;;;;;;;;;;;;19.33;63.39;100833.59;4995663;28;1581;-61
2021/04/28 09:44:27;;;;;;;;;;;;;;;19.32;63.55;100848.00;4992984;28;2170;-62
2021/04/28 09:46:54;;;;;;;;;;;;;;;19.28;63.68;100834.00;4993070;28;1346;-61
2021/04/28 09:49:20;;;;;;;;;;;;;;;19.30;63.54;100847.28;4997246;28;1979;-62
2021/04/28 09:51:53;;;;;;;;;;;;;;;19.31;63.60;100851.63;4979233;28;1582;-61
2021/04/28 09:54:19;;;;;;;;;;;;;;;19.32;63.46;100839.94;4984804;28;1762;-62
2021/04/28 09:56:46;;;;;;;;;;;;;;;19.33;63.68;100847.00;4985457;28;1521;-59
2021/04/28 09:59:12;;;;;;;;;;;;;;;19.34;63.41;100845.16;4984840;28;1706;-59
2021/04/28 10:01:39;;;;;;;;;;;;;;;19.33;64.32;100843.47;4988369;28;1417;-59
2021/04/28 10:04:06;;;;;;;;;;;;;;;19.32;64.10;100848.00;4984799;28;1687;-61
2021/04/28 10:06:46;;;;;;;;;;;;;;;19.34;64.27;100843.34;4982650;28;1991;-65
2021/04/28 10:09:30;;;;;;;;;;;;;;;19.10;62.78;100849.03;4988439;28;1898;-63
2021/04/28 10:11:57;;;;;;;;;;;;;;;19.30;63.76;100854.44;4991952;28;1369;-66
2021/04/28 10:14:23;;;;;;;;;;;;;;;19.31;63.40;100846.28;4981925;28;1368;-62
2021/04/28 10:16:52;;;;;;;;;;;;;;;19.35;63.66;100842.34;4972365;28;1439;-61
2021/04/28 10:19:19;;;;;;;;;;;;;;;19.37;64.07;100855.63;4977577;28;1411;-61
2021/04/28 10:21:46;;;;;;;;;;;;;;;19.40;63.73;100850.84;4976485;28;1493;-66
2021/04/28 10:24:12;;;;;;;;;;;;;;;19.37;63.21;100845.72;4978398;28;1661;-70
2021/04/28 10:26:39;;;;;;;;;;;;;;;19.35;63.77;100836.97;4980727;28;1391;-70
2021/04/28 10:29:07;;;;;;;;;;;;;;;19.33;63.30;100828.22;4978089;28;1899;-67
2021/04/28 10:31:33;;;;;;;;;;;;;;;19.31;63.39;100835.56;4979520;28;1306;-64
2021/04/28 10:34:00;;;;;;;;;;;;;;;19.30;63.66;100833.88;4977740;28;1274;-63
2021/04/28 10:36:27;;;;;;;;;;;;;;;19.35;63.30;100855.75;4975168;28;1342;-64
2021/04/28 10:38:53;;;;;;;;;;;;;;;19.38;63.66;100835.88;4983157;28;1401;-71
2021/04/28 10:41:38;;;;;;;;;;;;;;;19.38;63.47;100830.50;4979097;28;1408;-60
2021/04/28 10:44:05;;;;;;;;;;;;;;;19.35;63.02;100850.38;4981056;28;1372;-62
2021/04/28 10:46:32;;;;;;;;;;;;;;;19.39;62.88;100850.97;4978544;28;1362;-67
2021/04/28 10:49:13;;;;;;;;;;;;;;;19.34;58.57;100845.16;4981812;28;1973;-71
2021/04/28 10:51:40;;;;;;;;;;;;;;;19.23;60.63;100838.06;4980349;28;1425;-71
2021/04/28 10:54:25;;;;;;;;;;;;;;;19.17;60.06;100838.59;4985589;28;1551;-71
2021/04/28 10:56:58;;;;;;;;;;;;;;;19.16;62.86;100827.03;4975922;28;1598;-63
2021/04/28 10:59:34;;;;;;;;;;;;;;;19.25;61.86;100825.38;4974302;28;1524;-69
2021/04/28 11:02:06;;;;;;;;;;;;;;;19.23;62.23;100828.19;4975399;28;1723;-73
2021/04/28 11:04:32;;;;;;;;;;;;;;;19.28;62.54;100838.53;4977010;28;1396;-69
2021/04/28 11:06:58;;;;;;;;;;;;;;;19.25;62.91;100831.56;4982553;28;1504;-60
2021/04/28 11:09:25;;;;;;;;;;;;;;;19.24;62.44;100837.09;4978351;28;1970;-66
2021/04/28 11:11:54;;;;;;;;;;;;;;;19.17;62.69;100826.03;4978731;28;1684;-71
2021/04/28 11:14:27;;;;;;;;;;;;;;;19.20;62.82;100822.22;4982858;28;1585;-70
2021/04/28 11:16:54;;;;;;;;;;;;;;;19.24;62.62;100829.06;4981224;28;1791;-62
2021/04/28 11:19:22;;;;;;;;;;;;;;;19.17;61.69;100820.69;4983239;28;1306;-71
2021/04/28 11:22:08;;;;;;;;;;;;;;;19.14;61.87;100806.69;4983247;28;1585;-60
2021/04/28 11:24:49;;;;;;;;;;;;;;;19.16;62.66;100810.97;4989345;28;1576;-60
2021/04/28 11:27:30;;;;;;;;;;;;;;;19.21;61.99;100811.38;4978550;28;1620;-68
2021/04/28 11:29:56;;;;;;;;;;;;;;;19.16;63.88;100820.81;4982414;28;1906;-64
2021/04/28 11:32:23;;;;;;;;;;;;;;;19.13;63.36;100810.38;4981900;28;1652;-61
2021/04/28 11:34:53;;;;;;;;;;;;;;;19.12;62.40;100814.03;4971789;28;1385;-69
2021/04/28 11:37:19;;;;;;;;;;;;;;;19.17;62.27;100817.16;4979928;28;1399;-65
2021/04/28 11:39:46;;;;;;;;;;;;;;;19.12;62.72;100808.66;4977248;28;1399;-63
2021/04/28 11:42:13;;;;;;;;;;;;;;;19.10;63.67;100805.28;4976799;28;1291;-62
2021/04/28 11:44:39;;;;;;;;;;;;;;;19.08;63.72;100818.84;4978291;28;1221;-62
2021/04/28 11:47:06;;;;;;;;;;;;;;;19.11;63.46;100806.97;4978035;28;1358;-72
2021/04/28 11:49:32;;;;;;;;;;;;;;;19.06;62.90;100794.84;4983274;28;1918;-61
2021/04/28 11:51:59;;;;;;;;;;;;;;;19.03;63.76;100810.34;4980844;28;1368;-60
2021/04/28 11:54:26;;;;;;;;;;;;;;;19.02;63.16;100793.41;4978151;28;1706;-66
2021/04/28 11:56:52;;;;;;;;;;;;;;;19.08;63.26;100803.59;4976473;28;1424;-68
2021/04/28 11:59:19;;;;;;;;;;;;;;;19.13;63.18;100800.50;4976546;28;1342;-60
2021/04/28 12:01:45;;;;;;;;;;;;;;;19.16;62.87;100794.88;4978429;28;1509;-60
2021/04/28 12:04:11;;;;;;;;;;;;;;;19.22;62.75;100790.81;4979281;28;1422;-67
2021/04/28 12:06:39;;;;;;;;;;;;;;;19.27;62.44;100783.19;4979010;28;1338;-63
2021/04/28 12:09:08;;;;;;;;;;;;;;;19.31;62.65;100797.16;4971248;28;1910;-66
2021/04/28 12:11:34;;;;;;;;;;;;;;;19.27;62.98;100773.31;4977253;28;1649;-60
2021/04/28 12:14:01;;;;;;;;;;;;;;;19.25;63.05;100772.59;4980963;28;1640;-65
2021/04/28 12:16:27;;;;;;;;;;;;;;;19.22;62.97;100772.03;4982135;28;1322;-60
2021/04/28 12:19:05;;;;;;;;;;;;;;;19.20;63.24;100787.38;4978717;28;1775;-60
2021/04/28 12:21:31;;;;;;;;;;;;;;;19.13;63.93;100772.84;4976320;28;1268;-66
2021/04/28 12:23:58;;;;;;;;;;;;;;;19.13;63.67;100759.44;4977610;28;1706;-66
2021/04/28 12:26:25;;;;;;;;;;;;;;;19.14;63.59;100763.81;4975162;28;1374;-60
2021/04/28 12:28:51;;;;;;;;;;;;;;;19.17;63.71;100761.72;4973232;28;1914;-65
2021/04/28 12:31:18;;;;;;;;;;;;;;;19.09;63.79;100753.50;4977017;28;1512;-61
2021/04/28 12:33:44;;;;;;;;;;;;;;;19.06;63.76;100759.16;4981293;28;1436;-65
2021/04/28 12:36:10;;;;;;;;;;;;;;;19.08;63.95;100773.28;4979216;28;1383;-66
2021/04/28 12:38:39;;;;;;;;;;;;;;;19.10;63.69;100755.22;4982028;28;1251;-62
2021/04/28 12:41:07;;;;;;;;;;;;;;;19.11;63.28;100756.06;4979713;28;1581;-61
2021/04/28 12:43:36;;;;;;;;;;;;;;;19.10;63.20;100743.63;4974649;28;1576;-62
2021/04/28 12:46:03;;;;;;;;;;;;;;;19.15;63.61;100736.03;4981516;28;1415;-63
2021/04/28 12:48:49;;;;;;;;;;;;;;;19.17;62.98;100744.78;4981881;28;1712;-69